Time;durP1;ratioP1;P1;durP2;ratioP2;P2;SDS_P1;SDS_P2;PMS_P1;PMS_P2;Temp;Humidity;BMP_temperature;BMP_pressure;BME280_temperature;BME280_humidity;BME280_pressure;Samples;Min_cycle;Max_cycle;Signal;HPM_P1;HPM_P2
2021/04/19 00:01:30;;;;;;;25.02;12.52;;;11.50;99.90;;;;;;5050840;28;20033;-53
2021/04/19 00:03:56;;;;;;;22.83;12.10;;;11.50;99.90;;;;;;5049823;28;20483;-53
2021/04/19 00:06:22;;;;;;;22.50;11.93;;;11.50;99.90;;;;;;5050300;28;20423;-55
2021/04/19 00:08:47;;;;;;;19.33;12.18;;;11.50;99.90;;;;;;5054106;28;20044;-55
2021/04/19 00:11:13;;;;;;;25.00;11.88;;;11.50;99.90;;;;;;5052509;28;20035;-52
2021/04/19 00:13:39;;;;;;;24.00;11.85;;;11.50;99.90;;;;;;5051510;28;20032;-56
2021/04/19 00:16:05;;;;;;;24.52;12.93;;;11.40;99.90;;;;;;5045111;28;20029;-54
2021/04/19 00:18:30;;;;;;;22.90;14.63;;;11.20;99.90;;;;;;5043804;28;20029;-57
2021/04/19 00:20:56;;;;;;;28.15;15.10;;;10.90;99.90;;;;;;5047833;28;20025;-57
2021/04/19 00:23:22;;;;;;;28.88;15.88;;;10.70;99.90;;;;;;5052995;28;20037;-54
2021/04/19 00:25:47;;;;;;;30.40;16.98;;;10.50;99.90;;;;;;5050973;28;20029;-53
2021/04/19 00:28:13;;;;;;;30.58;17.88;;;10.30;99.90;;;;;;5056903;28;20025;-53
2021/04/19 00:30:38;;;;;;;30.92;16.90;;;10.20;99.90;;;;;;5048208;28;20033;-55
2021/04/19 00:33:04;;;;;;;34.65;17.63;;;10.20;99.90;;;;;;5047944;28;20028;-52
2021/04/19 00:35:30;;;;;;;33.05;17.92;;;10.10;99.90;;;;;;5049067;28;20021;-51
2021/04/19 00:37:56;;;;;;;31.83;16.27;;;10.00;99.90;;;;;;5050248;28;20065;-55
2021/04/19 00:40:22;;;;;;;35.65;19.05;;;10.00;99.90;;;;;;5051822;28;20025;-53
2021/04/19 00:42:50;;;;;;;32.15;17.05;;;10.10;99.90;;;;;;5058274;28;20033;-55
2021/04/19 00:45:17;;;;;;;26.85;15.70;;;10.20;99.90;;;;;;5048893;28;20028;-53
2021/04/19 00:47:46;;;;;;;30.85;15.65;;;10.20;99.90;;;;;;5031131;28;20028;-51
2021/04/19 00:50:15;;;;;;;24.98;14.32;;;10.30;99.90;;;;;;5051528;28;20444;-55
2021/04/19 00:52:40;;;;;;;30.13;15.13;;;10.40;99.90;;;;;;5049171;28;20044;-55
2021/04/19 00:55:09;;;;;;;28.60;14.30;;;10.40;99.90;;;;;;5049209;28;20037;-52
2021/04/19 00:57:35;;;;;;;42.25;16.77;;;10.40;99.90;;;;;;5054703;28;20032;-52
2021/04/19 01:00:01;;;;;;;26.15;13.85;;;10.40;99.90;;;;;;5051324;28;20025;-56
2021/04/19 01:02:26;;;;;;;24.92;13.95;;;10.40;99.90;;;;;;5048501;28;20024;-56
2021/04/19 01:04:52;;;;;;;24.58;14.00;;;10.40;99.90;;;;;;5043330;28;20064;-55
2021/04/19 01:07:18;;;;;;;25.92;14.25;;;10.40;99.90;;;;;;5048286;28;20475;-54
2021/04/19 01:09:43;;;;;;;28.20;14.05;;;10.40;99.90;;;;;;5056101;28;20029;-56
2021/04/19 01:12:10;;;;;;;25.38;13.55;;;10.40;99.90;;;;;;5055295;28;20033;-56
2021/04/19 01:14:36;;;;;;;24.05;13.68;;;10.40;99.90;;;;;;5049840;28;20036;-55
2021/04/19 01:17:01;;;;;;;28.60;14.65;;;10.40;99.90;;;;;;5040394;28;20031;-52
2021/04/19 01:19:27;;;;;;;22.02;12.35;;;10.40;99.90;;;;;;5049672;28;20055;-52
2021/04/19 01:21:52;;;;;;;20.85;12.82;;;10.40;99.90;;;;;;5048983;28;20029;-54
2021/04/19 01:24:18;;;;;;;28.05;14.45;;;10.40;99.90;;;;;;5059293;28;20402;-51
2021/04/19 01:26:44;;;;;;;25.80;13.65;;;10.40;99.90;;;;;;5051800;28;20036;-51
2021/04/19 01:29:09;;;;;;;29.88;14.15;;;10.40;99.90;;;;;;5041310;28;20026;-52
2021/04/19 01:31:35;;;;;;;25.17;12.98;;;10.40;99.90;;;;;;5049436;28;20057;-54
2021/04/19 01:34:00;;;;;;;24.77;13.35;;;10.40;99.90;;;;;;5061023;28;20547;-51
2021/04/19 01:36:26;;;;;;;25.92;13.50;;;10.40;99.90;;;;;;5048685;28;20482;-51
2021/04/19 01:38:52;;;;;;;22.42;12.65;;;10.40;99.90;;;;;;5053093;28;20052;-52
2021/04/19 01:41:17;;;;;;;27.45;12.32;;;10.40;99.90;;;;;;5052887;28;20025;-50
2021/04/19 01:43:43;;;;;;;19.95;11.57;;;10.30;99.90;;;;;;5048533;28;20119;-52
2021/04/19 01:46:08;;;;;;;24.23;12.73;;;10.30;99.90;;;;;;5043800;28;20021;-51
2021/04/19 01:48:34;;;;;;;21.23;12.88;;;10.30;99.90;;;;;;5043015;28;20437;-52
2021/04/19 01:51:00;;;;;;;26.20;11.63;;;10.30;99.90;;;;;;5053744;28;20028;-52
2021/04/19 01:53:25;;;;;;;20.98;11.55;;;10.30;99.90;;;;;;5053690;28;20111;-50
2021/04/19 01:55:51;;;;;;;23.13;12.52;;;10.30;99.90;;;;;;5057668;28;20033;-52
2021/04/19 01:58:21;;;;;;;26.77;13.98;;;10.20;99.90;;;;;;5059982;28;20078;-53
2021/04/19 02:00:54;;;;;;;29.13;14.45;;;10.10;99.90;;;;;;5052941;28;20064;-52
2021/04/19 02:03:34;;;;;;;28.63;14.13;;;10.00;99.90;;;;;;5029466;28;20075;-51
2021/04/19 02:06:14;;;;;;;25.98;14.75;;;9.90;99.90;;;;;;5055492;28;20040;-51
2021/04/19 02:09:07;;;;;;;32.15;16.17;;;9.80;99.90;;;;;;5054598;28;20035;-56
2021/04/19 02:11:52;;;;;;;31.45;15.13;;;9.80;99.90;;;;;;5033623;28;21497;-53
2021/04/19 02:14:18;;;;;;;23.63;14.52;;;9.80;99.90;;;;;;5053515;28;20141;-52
2021/04/19 02:17:10;;;;;;;29.73;15.23;;;9.80;99.90;;;;;;5056408;28;20487;-51
2021/04/19 02:19:42;;;;;;;38.97;15.00;;;9.80;99.90;;;;;;5050785;28;20033;-53
2021/04/19 02:22:40;;;;;;;25.35;13.57;;;9.90;99.90;;;;;;5045778;28;20025;-49
2021/04/19 02:25:28;;;;;;;27.30;15.07;;;9.80;99.90;;;;;;5037665;28;20041;-51
2021/04/19 02:28:07;;;;;;;26.17;14.02;;;9.80;99.90;;;;;;5061512;22;20073;-56
2021/04/19 02:30:38;;;;;;;33.05;15.90;;;9.80;99.90;;;;;;5049364;28;20078;-60
2021/04/19 02:33:09;;;;;;;29.25;14.80;;;9.90;99.90;;;;;;5049613;28;20025;-56
2021/04/19 02:35:37;;;;;;;30.98;15.35;;;9.70;99.90;;;;;;5046056;28;20029;-56
2021/04/19 02:38:06;;;;;;;28.23;15.68;;;9.60;99.90;;;;;;5051883;28;20368;-55
2021/04/19 02:40:35;;;;;;;32.53;15.55;;;9.50;99.90;;;;;;5049530;28;20029;-56
2021/04/19 02:43:02;;;;;;;29.60;13.40;;;9.50;99.90;;;;;;5044856;28;20021;-55
2021/04/19 02:45:29;;;;;;;26.20;15.38;;;9.60;99.90;;;;;;5050804;28;20017;-56
2021/04/19 02:47:55;;;;;;;28.17;14.40;;;9.60;99.90;;;;;;5049153;28;20017;-57
2021/04/19 02:50:24;;;;;;;24.20;13.48;;;9.60;99.90;;;;;;5050477;28;20482;-57
2021/04/19 02:52:51;;;;;;;29.00;14.88;;;9.60;99.90;;;;;;5048413;28;20394;-57
2021/04/19 02:55:23;;;;;;;24.13;13.18;;;9.70;99.90;;;;;;5047918;28;20460;-58
2021/04/19 02:57:53;;;;;;;21.70;12.95;;;9.70;99.90;;;;;;5044711;28;20128;-56
2021/04/19 03:00:21;;;;;;;27.65;12.57;;;9.70;99.90;;;;;;5050144;28;20566;-56
2021/04/19 03:02:47;;;;;;;24.00;12.98;;;9.70;99.90;;;;;;5048881;28;20133;-56
2021/04/19 03:05:14;;;;;;;26.50;13.43;;;9.70;99.90;;;;;;5047662;28;20029;-58
2021/04/19 03:07:57;;;;;;;23.17;13.13;;;9.70;99.90;;;;;;5050961;28;20074;-58
2021/04/19 03:10:24;;;;;;;22.10;12.63;;;9.70;99.90;;;;;;5048437;28;20364;-56
2021/04/19 03:12:54;;;;;;;22.92;11.88;;;9.60;99.90;;;;;;5042581;28;20067;-57
2021/04/19 03:15:27;;;;;;;25.08;12.25;;;9.60;99.90;;;;;;5043110;28;20049;-56
2021/04/19 03:17:56;;;;;;;20.25;11.95;;;9.60;99.90;;;;;;5050301;28;20025;-58
2021/04/19 03:20:43;;;;;;;25.80;11.43;;;9.60;99.90;;;;;;5052101;28;20033;-55
2021/04/19 03:23:11;;;;;;;26.02;11.73;;;9.60;99.90;;;;;;5030881;28;20109;-58
2021/04/19 03:25:37;;;;;;;25.98;12.57;;;9.60;99.90;;;;;;5047288;28;20024;-56
2021/04/19 03:28:04;;;;;;;26.85;12.80;;;9.60;99.90;;;;;;5046373;28;20040;-58
2021/04/19 03:30:30;;;;;;;24.30;11.38;;;9.60;99.90;;;;;;5032090;28;20029;-55
2021/04/19 03:32:57;;;;;;;25.42;12.43;;;9.60;99.90;;;;;;5051368;28;20095;-57
2021/04/19 03:35:28;;;;;;;23.65;11.32;;;9.50;99.90;;;;;;5052357;28;20025;-57
2021/04/19 03:37:56;;;;;;;24.10;12.27;;;9.50;99.90;;;;;;5051553;28;20479;-56
2021/04/19 03:40:27;;;;;;;23.08;12.63;;;9.50;99.90;;;;;;5050869;28;20048;-55
2021/04/19 03:42:58;;;;;;;21.02;12.73;;;9.50;99.90;;;;;;5050352;28;20033;-54
2021/04/19 03:45:26;;;;;;;22.55;11.88;;;9.40;99.90;;;;;;5050968;28;20068;-55
2021/04/19 03:47:55;;;;;;;23.23;12.10;;;9.40;99.90;;;;;;5044803;28;20040;-56
2021/04/19 03:50:24;;;;;;;27.05;12.32;;;9.40;99.90;;;;;;5048565;28;20021;-57
2021/04/19 03:52:53;;;;;;;25.02;13.73;;;9.40;99.90;;;;;;5046709;28;20082;-57
2021/04/19 03:55:18;;;;;;;35.15;15.32;;;9.40;99.90;;;;;;5048937;28;20025;-57
2021/04/19 03:57:49;;;;;;;30.40;14.52;;;9.30;99.90;;;;;;5039724;28;20036;-56
2021/04/19 04:00:20;;;;;;;33.00;14.77;;;9.30;99.90;;;;;;5045785;28;20049;-57
2021/04/19 04:02:54;;;;;;;33.55;14.27;;;9.30;99.90;;;;;;5043846;28;20021;-57
2021/04/19 04:05:20;;;;;;;27.88;15.77;;;9.30;99.90;;;;;;5042843;28;20029;-57
2021/04/19 04:07:48;;;;;;;26.48;14.07;;;9.20;99.90;;;;;;5046001;28;20112;-56
2021/04/19 04:10:15;;;;;;;34.65;16.05;;;9.20;99.90;;;;;;5032734;28;20030;-57
2021/04/19 04:12:41;;;;;;;29.77;15.45;;;9.20;99.90;;;;;;5044641;28;20491;-56
2021/04/19 04:15:07;;;;;;;30.02;16.15;;;9.20;99.90;;;;;;5044038;28;20068;-58
2021/04/19 04:17:32;;;;;;;27.70;16.83;;;9.20;99.90;;;;;;5043796;28;20545;-56
2021/04/19 04:19:58;;;;;;;34.25;16.02;;;9.20;99.90;;;;;;5044704;28;20120;-56
2021/04/19 04:22:24;;;;;;;38.25;17.10;;;9.20;99.90;;;;;;5047027;28;20432;-55
2021/04/19 04:24:52;;;;;;;37.92;17.80;;;9.10;99.90;;;;;;5049292;28;20096;-55
2021/04/19 04:27:17;;;;;;;37.90;17.55;;;9.00;99.90;;;;;;5047196;28;20487;-54
2021/04/19 04:29:43;;;;;;;35.35;19.17;;;9.00;99.90;;;;;;5049625;28;20139;-57
2021/04/19 04:32:09;;;;;;;40.70;20.10;;;8.90;99.90;;;;;;5044171;28;20029;-56
2021/04/19 04:34:35;;;;;;;36.25;19.65;;;8.90;99.90;;;;;;5045761;28;20149;-54
2021/04/19 04:37:01;;;;;;;34.03;20.20;;;8.80;99.90;;;;;;5045123;28;20796;-57
2021/04/19 04:39:26;;;;;;;38.13;19.67;;;8.80;99.90;;;;;;5048295;28;20025;-55
2021/04/19 04:41:52;;;;;;;41.85;20.80;;;8.80;99.90;;;;;;5046495;28;20029;-55
2021/04/19 04:44:24;;;;;;;42.25;21.83;;;8.80;99.90;;;;;;5043838;28;20033;-55
2021/04/19 04:47:22;;;;;;;39.95;21.25;;;8.70;99.90;;;;;;5047752;28;20026;-55
2021/04/19 04:50:07;;;;;;;40.45;22.25;;;8.70;99.90;;;;;;5048389;28;20025;-56
2021/04/19 04:52:55;;;;;;;38.08;22.45;;;8.60;99.90;;;;;;5043772;28;20020;-56
2021/04/19 04:55:23;;;;;;;43.70;23.23;;;8.60;99.90;;;;;;5031808;28;20041;-57
2021/04/19 04:57:49;;;;;;;48.45;24.88;;;8.50;99.90;;;;;;5043073;28;20117;-57
2021/04/19 05:00:18;;;;;;;51.13;25.60;;;8.50;99.90;;;;;;5048452;28;20047;-55
2021/04/19 05:02:46;;;;;;;49.42;24.60;;;8.50;99.90;;;;;;5046220;28;20025;-55
2021/04/19 05:05:14;;;;;;;51.85;24.80;;;8.50;99.90;;;;;;5046026;28;20094;-54
2021/04/19 05:07:41;;;;;;;47.13;27.15;;;8.40;99.90;;;;;;5048545;28;20025;-57
2021/04/19 05:10:08;;;;;;;53.70;29.25;;;8.40;99.90;;;;;;5043262;28;20036;-52
2021/04/19 05:12:33;;;;;;;47.97;26.77;;;8.30;99.90;;;;;;5046310;28;20040;-57
2021/04/19 05:15:00;;;;;;;67.22;29.10;;;8.40;99.90;;;;;;5049641;28;20040;-55
2021/04/19 05:17:26;;;;;;;50.83;28.50;;;8.30;99.90;;;;;;5043997;28;20025;-55
2021/04/19 05:19:52;;;;;;;57.55;28.30;;;8.40;99.90;;;;;;5047065;28;20546;-57
2021/04/19 05:22:18;;;;;;;57.15;28.05;;;8.30;99.90;;;;;;5044695;28;20541;-54
2021/04/19 05:24:44;;;;;;;58.90;30.35;;;8.30;99.90;;;;;;5045065;28;20023;-57
2021/04/19 05:27:11;;;;;;;56.88;31.00;;;8.40;99.90;;;;;;5049523;28;20033;-57
2021/04/19 05:29:38;;;;;;;60.35;29.35;;;8.30;99.90;;;;;;5047658;28;20022;-57
2021/04/19 05:32:06;;;;;;;61.63;31.35;;;8.40;99.90;;;;;;5046375;28;20033;-57
2021/04/19 05:34:31;;;;;;;64.65;31.50;;;8.40;99.90;;;;;;5042496;28;20386;-58
2021/04/19 05:36:58;;;;;;;61.03;32.53;;;8.40;99.90;;;;;;5042108;28;20111;-62
2021/04/19 05:39:24;;;;;;;66.68;32.60;;;8.40;99.90;;;;;;5038302;28;20033;-63
2021/04/19 05:41:52;;;;;;;72.43;35.22;;;8.40;99.90;;;;;;5036416;28;20032;-61
2021/04/19 05:44:18;;;;;;;73.40;35.60;;;8.30;99.90;;;;;;5034696;28;20029;-61
2021/04/19 05:46:44;;;;;;;68.18;36.95;;;8.30;99.90;;;;;;5040782;28;20033;-59
2021/04/19 05:49:10;;;;;;;81.85;37.65;;;8.30;99.90;;;;;;5046631;28;20063;-61
2021/04/19 05:51:40;;;;;;;62.20;34.38;;;8.30;99.90;;;;;;5030158;28;20440;-60
2021/04/19 05:54:08;;;;;;;63.05;34.67;;;8.30;99.90;;;;;;5041743;28;20056;-60
2021/04/19 05:56:36;;;;;;;72.55;37.33;;;8.30;99.90;;;;;;5040573;28;20502;-61
2021/04/19 05:59:22;;;;;;;80.05;37.40;;;8.20;99.90;;;;;;5034283;28;20037;-61
2021/04/19 06:01:52;;;;;;;71.05;38.13;;;8.20;99.90;;;;;;5037877;28;20047;-61
2021/04/19 06:04:51;;;;;;;73.88;38.67;;;8.20;99.90;;;;;;5040675;28;20025;-60
2021/04/19 06:07:32;;;;;;;80.50;38.85;;;8.10;99.90;;;;;;5040614;28;20017;-61
2021/04/19 06:10:16;;;;;;;71.63;39.55;;;8.10;99.90;;;;;;5024693;28;20029;-60
2021/04/19 06:12:47;;;;;;;87.40;39.45;;;8.20;99.90;;;;;;5041012;28;20087;-61
2021/04/19 06:15:14;;;;;;;87.70;41.70;;;8.20;99.90;;;;;;5044342;28;20552;-62
2021/04/19 06:17:58;;;;;;;78.88;43.13;;;8.20;99.90;;;;;;5014991;28;20064;-62
2021/04/19 06:20:25;;;;;;;;;;;8.20;99.90;;;;;;5022435;28;20037;-60
2021/04/19 06:22:55;;;;;;;85.65;40.72;;;8.20;99.90;;;;;;5023889;28;20046;-61
2021/04/19 06:25:22;;;;;;;85.15;44.30;;;8.20;99.90;;;;;;5027581;28;20027;-60
2021/04/19 06:27:48;;;;;;;82.97;44.58;;;8.20;99.90;;;;;;5044757;28;20889;-60
2021/04/19 06:30:18;;;;;;;89.97;44.97;;;8.20;99.90;;;;;;5025056;28;20030;-61
2021/04/19 06:32:46;;;;;;;83.70;44.88;;;8.10;99.90;;;;;;5042599;28;20504;-59
2021/04/19 06:35:14;;;;;;;90.32;45.90;;;8.10;99.90;;;;;;5045972;28;20047;-59
2021/04/19 06:37:40;;;;;;;96.25;48.22;;;8.10;99.90;;;;;;5046922;28;20036;-60
2021/04/19 06:40:07;;;;;;;96.05;46.92;;;8.10;99.90;;;;;;5047060;28;20113;-60
2021/04/19 06:42:34;;;;;;;92.30;48.83;;;8.10;99.90;;;;;;5026547;28;20372;-62
2021/04/19 06:45:01;;;;;;;96.72;49.50;;;8.10;99.90;;;;;;5045150;28;20048;-61
2021/04/19 06:47:26;;;;;;;90.88;47.47;;;8.00;99.90;;;;;;5046132;28;20021;-60
2021/04/19 06:49:54;;;;;;;95.22;47.30;;;8.00;99.90;;;;;;5045867;28;20390;-62
2021/04/19 06:52:20;;;;;;;110.03;50.38;;;8.00;99.90;;;;;;5044640;28;20107;-60
2021/04/19 06:54:46;;;;;;;103.50;52.75;;;8.00;99.90;;;;;;5048346;28;20033;-61
2021/04/19 06:57:15;;;;;;;103.63;53.13;;;8.00;99.90;;;;;;5049291;28;20087;-60
2021/04/19 06:59:44;;;;;;;95.88;51.88;;;8.00;99.90;;;;;;5048234;28;20033;-60
2021/04/19 07:02:19;;;;;;;96.68;51.13;;;8.00;99.90;;;;;;5043225;28;20028;-61
2021/04/19 07:04:49;;;;;;;99.47;53.17;;;8.00;99.90;;;;;;5041072;28;20021;-61
2021/04/19 07:07:21;;;;;;;104.07;52.30;;;8.10;99.90;;;;;;5045227;28;20112;-61
2021/04/19 07:09:50;;;;;;;111.00;56.50;;;8.00;99.90;;;;;;5049089;28;20086;-60
2021/04/19 07:12:19;;;;;;;105.00;53.38;;;8.10;99.90;;;;;;5043451;28;20574;-60
2021/04/19 07:14:48;;;;;;;99.75;52.95;;;8.10;99.90;;;;;;5042350;28;20029;-59
2021/04/19 07:17:14;;;;;;;103.22;54.85;;;8.10;99.90;;;;;;5049238;28;20032;-60
2021/04/19 07:19:40;;;;;;;105.05;55.58;;;8.10;99.90;;;;;;5033554;28;20024;-60
2021/04/19 07:22:06;;;;;;;112.07;57.35;;;8.10;99.90;;;;;;5041361;28;20037;-61
2021/04/19 07:24:33;;;;;;;103.40;56.50;;;8.10;99.90;;;;;;5048406;28;20514;-57
2021/04/19 07:27:02;;;;;;;107.60;56.15;;;8.10;99.90;;;;;;5045545;28;20029;-59
2021/04/19 07:29:27;;;;;;;101.95;55.20;;;8.10;99.90;;;;;;5044746;28;20017;-59
2021/04/19 07:31:55;;;;;;;99.15;53.90;;;8.10;99.90;;;;;;5041493;28;20021;-59
2021/04/19 07:34:22;;;;;;;104.07;55.13;;;8.20;99.90;;;;;;5048757;28;20028;-60
2021/04/19 07:36:59;;;;;;;92.57;51.65;;;8.20;99.90;;;;;;5043787;28;20053;-61
2021/04/19 07:39:28;;;;;;;99.25;56.60;;;8.30;99.90;;;;;;5048639;28;20013;-61
2021/04/19 07:41:59;;;;;;;96.28;52.17;;;8.30;99.90;;;;;;5025672;28;20483;-60
2021/04/19 07:44:37;;;;;;;100.13;53.03;;;8.20;99.90;;;;;;5047886;28;20108;-63
2021/04/19 07:47:24;;;;;;;111.15;57.60;;;8.00;99.90;;;;;;5046436;28;20029;-60
2021/04/19 07:50:08;;;;;;;104.57;55.35;;;8.00;99.90;;;;;;5042193;28;20024;-60
2021/04/19 07:52:53;;;;;;;118.75;59.00;;;8.10;99.90;;;;;;5045347;28;20021;-59
2021/04/19 07:55:21;;;;;;;109.35;59.75;;;8.10;99.90;;;;;;5047042;28;20033;-60
2021/04/19 07:57:47;;;;;;;99.78;53.97;;;8.10;99.90;;;;;;5048185;28;20033;-62
2021/04/19 08:00:22;;;;;;;105.63;55.40;;;8.10;99.90;;;;;;5043338;28;20037;-59
2021/04/19 08:02:55;;;;;;;;;;;8.10;99.90;;;;;;5046535;28;20027;-60
2021/04/19 08:05:51;;;;;;;101.75;54.78;;;8.10;99.90;;;;;;5044449;28;19935;-62
2021/04/19 08:08:30;;;;;;;101.43;52.72;;;8.10;99.90;;;;;;5026278;28;20055;-58
2021/04/19 08:11:06;;;;;;;103.75;56.55;;;8.20;99.90;;;;;;5046828;28;20029;-63
2021/04/19 08:13:32;;;;;;;106.18;56.38;;;8.10;99.90;;;;;;5037561;28;20029;-62
2021/04/19 08:16:20;;;;;;;97.43;56.95;;;8.20;99.90;;;;;;5049427;28;20117;-61
2021/04/19 08:18:46;;;;;;;110.00;56.80;;;8.20;99.90;;;;;;5044963;28;20029;-61
2021/04/19 08:21:12;;;;;;;100.32;55.28;;;8.20;99.90;;;;;;5049024;28;20052;-62
2021/04/19 08:23:46;;;;;;;104.47;53.60;;;8.30;99.90;;;;;;5044086;28;20071;-61
2021/04/19 08:26:12;;;;;;;96.23;53.10;;;8.20;99.90;;;;;;5047457;28;20522;-62
2021/04/19 08:28:45;;;;;;;89.32;52.33;;;8.20;99.90;;;;;;5063398;22;20129;-56
2021/04/19 08:31:11;;;;;;;103.35;54.53;;;8.20;99.90;;;;;;5025168;28;20021;-56
2021/04/19 08:33:37;;;;;;;102.93;53.45;;;8.20;99.90;;;;;;5034342;28;20029;-56
2021/04/19 08:36:07;;;;;;;101.55;53.10;;;8.10;99.90;;;;;;5034884;28;20112;-56
2021/04/19 08:38:33;;;;;;;103.00;54.92;;;8.20;99.90;;;;;;5029237;28;20072;-54
2021/04/19 08:40:59;;;;;;;88.05;54.65;;;8.20;99.90;;;;;;5029906;28;20041;-54
2021/04/19 08:43:28;;;;;;;98.57;52.08;;;8.20;99.90;;;;;;5029721;28;20029;-56
2021/04/19 08:45:55;;;;;;;90.75;52.65;;;8.20;99.90;;;;;;5029810;28;20610;-52
2021/04/19 08:48:20;;;;;;;100.93;56.58;;;8.30;99.90;;;;;;5029313;28;20403;-52
2021/04/19 08:50:48;;;;;;;95.47;53.53;;;8.30;99.90;;;;;;5027465;28;20026;-52
2021/04/19 08:53:15;;;;;;;94.13;55.10;;;8.30;99.90;;;;;;5028269;28;20408;-54
2021/04/19 08:55:43;;;;;;;113.43;59.47;;;8.30;99.90;;;;;;5028312;28;20270;-56
2021/04/19 08:58:14;;;;;;;100.05;56.13;;;8.30;99.90;;;;;;5026421;28;20484;-54
2021/04/19 09:00:46;;;;;;;98.45;56.58;;;8.30;99.90;;;;;;5028225;28;20407;-52
2021/04/19 09:03:16;;;;;;;102.22;55.10;;;8.20;99.90;;;;;;5024930;28;20041;-52
2021/04/19 09:05:42;;;;;;;97.05;55.60;;;8.30;99.90;;;;;;5028659;28;20022;-53
2021/04/19 09:08:10;;;;;;;87.85;51.38;;;8.40;99.90;;;;;;5026718;28;20505;-52
2021/04/19 09:10:56;;;;;;;93.22;55.22;;;8.50;99.90;;;;;;5030245;28;20265;-52
2021/04/19 09:13:26;;;;;;;103.75;55.90;;;8.40;99.90;;;;;;5027137;28;20026;-54
2021/04/19 09:15:55;;;;;;;111.93;59.33;;;8.40;99.90;;;;;;5029532;28;20300;-54
2021/04/19 09:18:22;;;;;;;106.90;60.25;;;8.50;99.90;;;;;;5028042;28;20080;-56
2021/04/19 09:20:53;;;;;;;112.72;61.53;;;8.60;99.90;;;;;;5024189;28;20060;-56
2021/04/19 09:23:33;;;;;;;118.75;64.07;;;8.60;99.90;;;;;;5026456;28;20026;-53
2021/04/19 09:26:01;;;;;;;111.43;59.42;;;8.60;99.90;;;;;;5029196;28;20120;-56
2021/04/19 09:28:46;;;;;;;105.65;58.15;;;8.50;99.90;;;;;;5022930;28;20079;-55
2021/04/19 09:31:12;;;;;;;108.25;59.85;;;8.60;99.90;;;;;;5019927;28;20034;-56
2021/04/19 09:33:39;;;;;;;105.05;60.75;;;8.70;99.90;;;;;;5026632;28;20064;-52
2021/04/19 09:36:05;;;;;;;112.82;60.15;;;8.80;99.90;;;;;;5028396;28;20099;-56
2021/04/19 09:38:33;;;;;;;111.20;62.53;;;8.80;99.90;;;;;;5028359;28;20480;-52
2021/04/19 09:41:02;;;;;;;111.60;61.67;;;8.90;99.90;;;;;;5028821;28;21110;-55
2021/04/19 09:43:32;;;;;;;125.22;68.05;;;9.00;99.90;;;;;;5028896;28;20463;-56
2021/04/19 09:46:03;;;;;;;122.80;68.28;;;9.10;99.90;;;;;;5034007;28;20070;-52
2021/04/19 09:48:28;;;;;;;117.45;62.47;;;9.20;99.90;;;;;;5028317;28;20054;-52
2021/04/19 09:50:59;;;;;;;112.90;65.22;;;9.10;99.90;;;;;;5027571;28;20179;-55
2021/04/19 09:53:25;;;;;;;116.95;67.43;;;9.20;99.90;;;;;;5024086;28;20546;-53
2021/04/19 09:55:51;;;;;;;114.47;68.00;;;9.30;99.90;;;;;;5030101;28;20228;-55
2021/04/19 09:58:18;;;;;;;113.93;66.07;;;9.40;99.90;;;;;;5030777;28;20399;-55
2021/04/19 10:00:44;;;;;;;119.65;64.22;;;9.40;99.90;;;;;;5030960;28;20029;-53
2021/04/19 10:03:10;;;;;;;117.18;68.20;;;9.50;99.90;;;;;;5027148;28;20084;-55
2021/04/19 10:05:42;;;;;;;123.35;70.10;;;9.50;99.90;;;;;;5027163;28;20045;-55
2021/04/19 10:08:10;;;;;;;123.35;68.47;;;9.50;99.90;;;;;;5026751;28;20021;-55
2021/04/19 10:10:37;;;;;;;118.78;67.68;;;9.50;99.90;;;;;;5030717;28;20033;-56
2021/04/19 10:13:02;;;;;;;121.47;66.30;;;9.50;99.90;;;;;;5031147;28;20032;-56
2021/04/19 10:15:28;;;;;;;113.50;65.65;;;9.40;99.90;;;;;;5030169;28;20025;-53
2021/04/19 10:17:53;;;;;;;119.45;65.30;;;9.50;99.90;;;;;;5030086;28;20032;-55
2021/04/19 10:20:22;;;;;;;110.10;63.00;;;9.60;99.90;;;;;;5030306;28;20506;-53
2021/04/19 10:23:08;;;;;;;103.30;59.95;;;9.60;99.90;;;;;;5031030;28;20033;-56
2021/04/19 10:25:43;;;;;;;101.25;60.03;;;9.50;99.90;;;;;;5029831;28;20510;-54
2021/04/19 10:28:09;;;;;;;115.05;66.55;;;9.60;99.90;;;;;;5028581;28;20037;-53
2021/04/19 10:30:34;;;;;;;112.20;67.28;;;9.60;99.90;;;;;;5031619;28;20017;-57
2021/04/19 10:33:00;;;;;;;121.80;65.45;;;9.60;99.90;;;;;;5030319;28;20065;-53
2021/04/19 10:35:35;;;;;;;110.97;61.78;;;9.50;99.90;;;;;;5031674;28;20026;-52
2021/04/19 10:38:03;;;;;;;102.97;59.97;;;9.50;99.90;;;;;;5029796;28;20120;-56
2021/04/19 10:40:28;;;;;;;99.50;59.70;;;9.70;99.90;;;;;;5038219;28;20084;-57
2021/04/19 10:43:09;;;;;;;102.32;58.17;;;9.80;99.90;;;;;;5030897;28;20526;-56
2021/04/19 10:45:35;;;;;;;101.45;58.08;;;9.90;99.90;;;;;;5032442;28;20033;-52
2021/04/19 10:48:22;;;;;;;107.38;61.85;;;10.00;99.90;;;;;;5032792;28;20022;-53
2021/04/19 10:50:49;;;;;;;115.05;64.53;;;10.10;99.90;;;;;;5032303;28;20084;-52
2021/04/19 10:53:30;;;;;;;104.97;59.20;;;10.20;99.90;;;;;;5031523;28;20435;-56
2021/04/19 10:56:00;;;;;;;108.45;62.42;;;10.30;99.90;;;;;;5032978;28;20094;-55
2021/04/19 10:58:29;;;;;;;94.47;55.67;;;10.30;99.90;;;;;;5027699;28;20028;-56
2021/04/19 11:00:55;;;;;;;100.15;58.47;;;10.30;99.90;;;;;;5029923;28;20037;-56
2021/04/19 11:03:21;;;;;;;94.47;55.70;;;10.40;99.90;;;;;;5023527;28;20318;-56
2021/04/19 11:05:47;;;;;;;92.78;55.22;;;10.60;99.90;;;;;;5025429;28;20037;-56
2021/04/19 11:08:12;;;;;;;86.18;52.08;;;10.70;99.90;;;;;;5029910;28;20026;-53
2021/04/19 11:10:38;;;;;;;86.80;51.13;;;10.90;99.90;;;;;;5030757;28;20391;-56
2021/04/19 11:13:05;;;;;;;98.53;55.65;;;10.90;99.90;;;;;;5030264;28;20124;-56
2021/04/19 11:15:31;;;;;;;88.28;53.70;;;11.10;99.90;;;;;;5031571;28;20052;-56
2021/04/19 11:17:57;;;;;;;93.57;55.30;;;11.30;99.90;;;;;;5031200;28;20583;-52
2021/04/19 11:20:28;;;;;;;87.03;51.95;;;11.50;99.90;;;;;;5031338;28;20037;-53
2021/04/19 11:22:54;;;;;;;82.78;51.65;;;11.90;99.90;;;;;;5030615;28;20029;-55
2021/04/19 11:25:23;;;;;;;87.30;48.95;;;12.30;99.90;;;;;;5031578;28;20021;-54
2021/04/19 11:27:51;;;;;;;91.70;54.00;;;12.40;99.90;;;;;;5024849;28;20040;-56
2021/04/19 11:30:25;;;;;;;77.63;46.13;;;12.10;99.90;;;;;;5030669;28;20032;-52
2021/04/19 11:33:01;;;;;;;81.07;48.78;;;12.10;99.90;;;;;;5030706;28;20032;-56
2021/04/19 11:35:34;;;;;;;72.97;43.03;;;12.50;99.90;;;;;;5029108;28;20582;-55
2021/04/19 11:38:01;;;;;;;71.85;42.63;;;12.80;99.90;;;;;;5029096;28;20041;-55
2021/04/19 11:40:39;;;;;;;71.47;43.53;;;13.00;99.90;;;;;;5029012;28;20028;-55
2021/04/19 11:43:22;;;;;;;66.32;40.13;;;13.10;99.90;;;;;;5025520;28;20028;-54
2021/04/19 11:46:13;;;;;;;64.82;40.03;;;13.10;99.90;;;;;;5028104;28;20532;-52
2021/04/19 11:48:41;;;;;;;71.15;42.65;;;13.50;99.90;;;;;;5023224;28;20029;-56
2021/04/19 11:51:09;;;;;;;69.57;42.80;;;13.30;99.90;;;;;;5029106;28;20559;-56
2021/04/19 11:53:36;;;;;;;63.33;40.45;;;13.40;99.90;;;;;;5028540;28;20035;-56
2021/04/19 11:56:03;;;;;;;64.70;41.15;;;13.30;99.90;;;;;;5027519;28;20554;-56
2021/04/19 11:58:29;;;;;;;66.55;41.55;;;13.20;99.90;;;;;;5028487;28;20030;-54
2021/04/19 12:00:55;;;;;;;64.53;40.53;;;13.40;99.90;;;;;;5025985;28;20045;-56
2021/04/19 12:03:23;;;;;;;61.25;39.63;;;13.40;99.90;;;;;;5025796;28;20029;-57
2021/04/19 12:05:49;;;;;;;56.60;36.03;;;13.70;99.90;;;;;;5033851;28;20017;-56
2021/04/19 12:08:15;;;;;;;63.80;37.08;;;13.70;99.90;;;;;;5025788;28;20033;-54
2021/04/19 12:10:41;;;;;;;57.47;35.35;;;13.70;99.90;;;;;;5029941;28;20476;-56
2021/04/19 12:13:11;;;;;;;56.72;34.55;;;14.00;99.90;;;;;;5024432;28;20029;-56
2021/04/19 12:15:36;;;;;;;57.20;34.55;;;14.20;99.90;;;;;;5029982;28;20365;-55
2021/04/19 12:18:02;;;;;;;48.75;30.95;;;14.40;99.90;;;;;;5028071;28;20044;-56
2021/04/19 12:20:28;;;;;;;47.50;29.95;;;14.40;99.90;;;;;;5022865;28;20032;-53
2021/04/19 12:22:53;;;;;;;44.25;28.67;;;14.40;99.90;;;;;;5027815;28;20063;-56
2021/04/19 12:25:19;;;;;;;49.30;29.42;;;14.40;99.90;;;;;;5024242;28;20383;-56
2021/04/19 12:27:44;;;;;;;46.95;28.92;;;14.30;99.90;;;;;;5028895;28;20029;-53
2021/04/19 12:30:11;;;;;;;44.25;27.35;;;14.70;99.90;;;;;;5027537;28;20025;-57
2021/04/19 12:32:36;;;;;;;38.58;25.05;;;14.60;99.90;;;;;;5027051;28;20143;-52
2021/04/19 12:35:02;;;;;;;37.50;23.92;;;14.80;99.90;;;;;;5029574;28;20040;-52
2021/04/19 12:37:28;;;;;;;35.42;24.58;;;14.30;99.90;;;;;;5025317;28;20029;-55
2021/04/19 12:39:53;;;;;;;36.95;24.77;;;14.30;99.90;;;;;;5026396;28;20024;-53
2021/04/19 12:42:19;;;;;;;38.45;25.00;;;14.20;99.90;;;;;;5027025;28;20026;-53